アンタナナリボ の空港の天気 - METARとTAF

イヴァト空港(アンタナナリボ) ( FMMI / TNR ) - マダガスカル アンタナナリボ
飛行場実況気象(Metar)
観測時間01/19 14:00 EAT (01/19 11:00 UTC)
風向・風速北 5m/s
視程10km以上
天気現象
全天の8割程度の雲 雲底高度 610m
気温28℃
湿度51%
気圧1015hPa
METARFMMI 191100Z 36010KT 9999 BKN020TCU 28/17 Q1015 NOSIG
過去の天気等 Google飛行場航空写真 Wunderground天気予報

過去48時間のMETAR

飛行場予報(TAF)
発表時間: -
19日10時 EAT ~ 19日13時 EAT に徐々に
風向・風速北北西 5m/s
全天の4割程度の積乱雲 雲底高度 610m
全天の8割程度の雲 雲底高度 700m
19日14時 EAT ~ 20日1時 EAT に 確率 40% で一時的に
視程4000m
天気現象雷雨
19日19時 EAT ~ 19日22時 EAT に徐々に
風向・風速北東 3m/s
19日23時 EAT ~ 20日2時 EAT に徐々に
少しの雲 雲底高度 210m
全天の8割程度の雲 雲底高度 610m
20日10時 EAT ~ 20日13時 EAT に徐々に
風向・風速北西 5m/s
全天の4割程度の積乱雲 雲底高度 610m
全天の4割程度の雲 雲底高度 700m
TAF
FMMI 190500Z 1906/2012 04005KT 9999 SCT020 SCT023
BECMG 1907/1910 34010KT SCT020CB BKN023
PROB40 TEMPO 1911/1922 4000 TSRA
BECMG 1916/1919 04005KT
BECMG 1920/1923 FEW007 BKN020
BECMG 2007/2010 32010KT SCT020CB SCT023